sensor_id;sensor_type;location;lat;lon;timestamp;pressure;altitude;pressure_sealevel;temperature;humidity
6024;BME280;3040;42.654;23.296;2023-04-08T00:01:09;94294.19;;;7.22;65.93
6024;BME280;3040;42.654;23.296;2023-04-08T00:03:36;94295.31;;;6.95;67.29
6024;BME280;3040;42.654;23.296;2023-04-08T00:06:03;94260.00;;;6.83;67.84
6024;BME280;3040;42.654;23.296;2023-04-08T00:08:30;94298.75;;;6.62;69.03
6024;BME280;3040;42.654;23.296;2023-04-08T00:10:57;94295.16;;;6.83;68.46
6024;BME280;3040;42.654;23.296;2023-04-08T00:13:24;94307.28;;;6.67;69.01
6024;BME280;3040;42.654;23.296;2023-04-08T00:15:51;94305.09;;;6.61;69.01
6024;BME280;3040;42.654;23.296;2023-04-08T00:18:19;94297.16;;;6.69;68.65
6024;BME280;3040;42.654;23.296;2023-04-08T00:20:46;94288.00;;;6.32;69.79
6024;BME280;3040;42.654;23.296;2023-04-08T00:23:13;94218.53;;;6.15;69.00
6024;BME280;3040;42.654;23.296;2023-04-08T00:25:42;94295.16;;;6.92;68.75
6024;BME280;3040;42.654;23.296;2023-04-08T00:28:09;94293.59;;;7.17;67.64
6024;BME280;3040;42.654;23.296;2023-04-08T00:30:36;94290.75;;;7.30;67.32
6024;BME280;3040;42.654;23.296;2023-04-08T00:33:03;94293.69;;;7.46;67.10
6024;BME280;3040;42.654;23.296;2023-04-08T00:35:31;94290.19;;;7.63;66.88
6024;BME280;3040;42.654;23.296;2023-04-08T00:37:58;94293.63;;;7.63;66.25
6024;BME280;3040;42.654;23.296;2023-04-08T00:40:26;94154.47;;;6.69;65.02
6024;BME280;3040;42.654;23.296;2023-04-08T00:42:52;94276.38;;;7.49;65.20
6024;BME280;3040;42.654;23.296;2023-04-08T00:45:20;94301.41;;;7.68;64.96
6024;BME280;3040;42.654;23.296;2023-04-08T00:47:47;94300.78;;;7.71;65.49
6024;BME280;3040;42.654;23.296;2023-04-08T00:50:17;94304.81;;;7.78;65.52
6024;BME280;3040;42.654;23.296;2023-04-08T00:52:45;94302.59;;;7.80;65.09
6024;BME280;3040;42.654;23.296;2023-04-08T00:55:12;94297.91;;;7.85;64.76
6024;BME280;3040;42.654;23.296;2023-04-08T00:57:39;94287.63;;;7.84;64.22
6024;BME280;3040;42.654;23.296;2023-04-08T01:00:07;94271.47;;;7.76;64.57
6024;BME280;3040;42.654;23.296;2023-04-08T01:02:40;94300.81;;;8.01;65.43
6024;BME280;3040;42.654;23.296;2023-04-08T01:05:13;94309.66;;;8.05;65.28
6024;BME280;3040;42.654;23.296;2023-04-08T01:07:46;94310.28;;;8.02;65.94
6024;BME280;3040;42.654;23.296;2023-04-08T01:10:16;94314.31;;;8.08;65.08
6024;BME280;3040;42.654;23.296;2023-04-08T01:12:51;94310.56;;;8.09;64.71
6024;BME280;3040;42.654;23.296;2023-04-08T01:15:19;94310.28;;;8.02;64.39
6024;BME280;3040;42.654;23.296;2023-04-08T01:17:49;94308.59;;;7.97;64.67
6024;BME280;3040;42.654;23.296;2023-04-08T01:20:19;94340.25;;;7.94;65.03
6024;BME280;3040;42.654;23.296;2023-04-08T01:23:00;94310.97;;;7.90;64.37
6024;BME280;3040;42.654;23.296;2023-04-08T01:25:30;94306.78;;;7.89;65.24
6024;BME280;3040;42.654;23.296;2023-04-08T01:27:59;94303.34;;;7.89;65.50
6024;BME280;3040;42.654;23.296;2023-04-08T01:30:27;94309.09;;;7.91;65.56
6024;BME280;3040;42.654;23.296;2023-04-08T01:32:56;94306.78;;;7.89;65.93
6024;BME280;3040;42.654;23.296;2023-04-08T01:35:25;94158.75;;;7.00;65.89
6024;BME280;3040;42.654;23.296;2023-04-08T01:37:53;94302.53;;;7.97;66.48
6024;BME280;3040;42.654;23.296;2023-04-08T01:40:20;94311.72;;;7.99;66.80
6024;BME280;3040;42.654;23.296;2023-04-08T01:42:48;94306.53;;;8.03;66.68
6024;BME280;3040;42.654;23.296;2023-04-08T01:45:17;94287.78;;;7.87;66.43
6024;BME280;3040;42.654;23.296;2023-04-08T01:47:46;94224.59;;;7.39;65.47
6024;BME280;3040;42.654;23.296;2023-04-08T01:50:14;94309.25;;;7.94;65.68
6024;BME280;3040;42.654;23.296;2023-04-08T01:52:44;94303.78;;;7.91;65.08
6024;BME280;3040;42.654;23.296;2023-04-08T01:55:11;94309.25;;;7.94;65.09
6024;BME280;3040;42.654;23.296;2023-04-08T01:57:39;94308.47;;;7.94;65.03
6024;BME280;3040;42.654;23.296;2023-04-08T02:00:09;94314.19;;;7.96;65.47
6024;BME280;3040;42.654;23.296;2023-04-08T02:02:40;94312.97;;;7.93;65.79
6024;BME280;3040;42.654;23.296;2023-04-08T02:05:08;94326.16;;;8.02;65.08
6024;BME280;3040;42.654;23.296;2023-04-08T02:07:35;94312.03;;;7.98;64.95
6024;BME280;3040;42.654;23.296;2023-04-08T02:10:02;94323.88;;;8.00;66.00
6024;BME280;3040;42.654;23.296;2023-04-08T02:12:29;94331.31;;;8.07;65.80
6024;BME280;3040;42.654;23.296;2023-04-08T02:14:56;94334.88;;;8.11;65.60
6024;BME280;3040;42.654;23.296;2023-04-08T02:17:26;94321.34;;;8.04;66.10
6024;BME280;3040;42.654;23.296;2023-04-08T02:20:02;94204.91;;;7.19;65.87
6024;BME280;3040;42.654;23.296;2023-04-08T02:22:40;94310.19;;;7.90;66.25
6024;BME280;3040;42.654;23.296;2023-04-08T02:25:12;94334.91;;;8.02;66.31
6024;BME280;3040;42.654;23.296;2023-04-08T02:27:41;94196.00;;;6.60;67.26
6024;BME280;3040;42.654;23.296;2023-04-08T02:30:10;94334.00;;;7.17;68.34
6024;BME280;3040;42.654;23.296;2023-04-08T02:32:37;94326.72;;;6.88;70.19
6024;BME280;3040;42.654;23.296;2023-04-08T02:35:07;94198.66;;;6.26;69.11
6024;BME280;3040;42.654;23.296;2023-04-08T02:37:37;94324.53;;;7.25;68.90
6024;BME280;3040;42.654;23.296;2023-04-08T02:40:21;94341.03;;;7.22;69.92
6024;BME280;3040;42.654;23.296;2023-04-08T02:42:48;94342.59;;;6.88;70.66
6024;BME280;3040;42.654;23.296;2023-04-08T02:45:16;94336.50;;;6.53;72.21
6024;BME280;3040;42.654;23.296;2023-04-08T02:47:43;94330.69;;;6.26;72.82
6024;BME280;3040;42.654;23.296;2023-04-08T02:50:11;94316.38;;;6.18;72.62
6024;BME280;3040;42.654;23.296;2023-04-08T02:52:38;94333.75;;;6.10;73.46
6024;BME280;3040;42.654;23.296;2023-04-08T02:55:06;94334.97;;;6.04;73.32
6024;BME280;3040;42.654;23.296;2023-04-08T02:57:34;94332.19;;;6.09;73.43
6024;BME280;3040;42.654;23.296;2023-04-08T03:00:02;94332.63;;;6.03;73.87
6024;BME280;3040;42.654;23.296;2023-04-08T03:02:30;94337.13;;;6.50;72.66
6024;BME280;3040;42.654;23.296;2023-04-08T03:04:56;94300.28;;;6.54;71.56
6024;BME280;3040;42.654;23.296;2023-04-08T03:07:25;94336.63;;;6.57;70.01
6024;BME280;3040;42.654;23.296;2023-04-08T03:09:52;94329.84;;;6.73;70.96
6024;BME280;3040;42.654;23.296;2023-04-08T03:12:20;94318.94;;;6.83;70.44
6024;BME280;3040;42.654;23.296;2023-04-08T03:14:47;94338.38;;;7.13;69.35
6024;BME280;3040;42.654;23.296;2023-04-08T03:17:14;94331.38;;;7.17;68.90
6024;BME280;3040;42.654;23.296;2023-04-08T03:19:41;94332.28;;;7.30;68.38
6024;BME280;3040;42.654;23.296;2023-04-08T03:22:08;94329.16;;;7.45;69.21
6024;BME280;3040;42.654;23.296;2023-04-08T03:24:36;94326.50;;;7.54;68.19
6024;BME280;3040;42.654;23.296;2023-04-08T03:27:03;94330.25;;;7.53;67.36
6024;BME280;3040;42.654;23.296;2023-04-08T03:29:30;94333.16;;;7.60;67.71
6024;BME280;3040;42.654;23.296;2023-04-08T03:31:57;94339.38;;;7.72;66.77
6024;BME280;3040;42.654;23.296;2023-04-08T03:34:24;94326.34;;;7.50;66.59
6024;BME280;3040;42.654;23.296;2023-04-08T03:36:51;94326.31;;;7.67;66.49
6024;BME280;3040;42.654;23.296;2023-04-08T03:39:18;94340.56;;;7.84;66.92
6024;BME280;3040;42.654;23.296;2023-04-08T03:41:46;94305.91;;;7.68;67.37
6024;BME280;3040;42.654;23.296;2023-04-08T03:44:13;94334.94;;;7.94;67.69
6024;BME280;3040;42.654;23.296;2023-04-08T03:46:39;94342.59;;;7.95;67.65
6024;BME280;3040;42.654;23.296;2023-04-08T03:49:06;94318.31;;;7.85;66.43
6024;BME280;3040;42.654;23.296;2023-04-08T03:51:33;94333.75;;;7.83;67.33
6024;BME280;3040;42.654;23.296;2023-04-08T03:54:00;94311.09;;;7.56;67.08
6024;BME280;3040;42.654;23.296;2023-04-08T03:56:27;94331.75;;;7.71;67.08
6024;BME280;3040;42.654;23.296;2023-04-08T03:58:55;94331.13;;;7.74;66.73
6024;BME280;3040;42.654;23.296;2023-04-08T04:01:22;94333.44;;;7.75;66.93
6024;BME280;3040;42.654;23.296;2023-04-08T04:03:48;94334.38;;;7.80;67.14
6024;BME280;3040;42.654;23.296;2023-04-08T04:06:15;94327.84;;;7.77;66.77
6024;BME280;3040;42.654;23.296;2023-04-08T04:08:42;94334.22;;;7.76;66.61
6024;BME280;3040;42.654;23.296;2023-04-08T04:11:09;94295.38;;;7.59;66.37
6024;BME280;3040;42.654;23.296;2023-04-08T04:13:36;94326.72;;;7.87;66.79
6024;BME280;3040;42.654;23.296;2023-04-08T04:16:04;94336.22;;;7.88;66.79
6024;BME280;3040;42.654;23.296;2023-04-08T04:18:31;94337.78;;;7.89;67.22
6024;BME280;3040;42.654;23.296;2023-04-08T04:20:58;94342.72;;;7.90;67.13
6024;BME280;3040;42.654;23.296;2023-04-08T04:23:25;94336.22;;;7.88;67.39
6024;BME280;3040;42.654;23.296;2023-04-08T04:25:51;94348.19;;;7.94;66.94
6024;BME280;3040;42.654;23.296;2023-04-08T04:28:18;94348.97;;;7.94;67.32
6024;BME280;3040;42.654;23.296;2023-04-08T04:30:45;94345.97;;;7.96;66.95
6024;BME280;3040;42.654;23.296;2023-04-08T04:33:13;94343.19;;;8.01;67.47
6024;BME280;3040;42.654;23.296;2023-04-08T04:35:40;94355.00;;;8.03;67.44
6024;BME280;3040;42.654;23.296;2023-04-08T04:38:07;94350.78;;;8.02;67.73
6024;BME280;3040;42.654;23.296;2023-04-08T04:40:37;94353.78;;;8.01;66.99
6024;BME280;3040;42.654;23.296;2023-04-08T04:43:04;94336.63;;;7.98;66.04
6024;BME280;3040;42.654;23.296;2023-04-08T04:45:31;94355.78;;;8.04;65.58
6024;BME280;3040;42.654;23.296;2023-04-08T04:47:58;94354.03;;;8.08;65.60
6024;BME280;3040;42.654;23.296;2023-04-08T04:50:26;94340.25;;;7.94;66.09
6024;BME280;3040;42.654;23.296;2023-04-08T04:52:53;94342.06;;;8.02;66.16
6024;BME280;3040;42.654;23.296;2023-04-08T04:55:20;94354.50;;;8.10;65.74
6024;BME280;3040;42.654;23.296;2023-04-08T04:57:48;94356.97;;;8.15;66.50
6024;BME280;3040;42.654;23.296;2023-04-08T05:00:15;94356.34;;;8.18;67.12
6024;BME280;3040;42.654;23.296;2023-04-08T05:02:42;94332.13;;;7.99;67.57
6024;BME280;3040;42.654;23.296;2023-04-08T05:05:08;94362.28;;;8.15;67.68
6024;BME280;3040;42.654;23.296;2023-04-08T05:07:37;94343.72;;;8.15;67.43
6024;BME280;3040;42.654;23.296;2023-04-08T05:10:05;94357.72;;;8.24;66.63
6024;BME280;3040;42.654;23.296;2023-04-08T05:12:31;94355.97;;;8.28;66.79
6024;BME280;3040;42.654;23.296;2023-04-08T05:14:58;94353.84;;;8.30;65.41
6024;BME280;3040;42.654;23.296;2023-04-08T05:17:25;94362.22;;;8.32;66.02
6024;BME280;3040;42.654;23.296;2023-04-08T05:19:52;94357.53;;;8.29;65.47
6024;BME280;3040;42.654;23.296;2023-04-08T05:22:19;94346.72;;;8.13;65.67
6024;BME280;3040;42.654;23.296;2023-04-08T05:24:47;94358.81;;;8.23;64.98
6024;BME280;3040;42.654;23.296;2023-04-08T05:27:14;94358.59;;;7.99;64.90
6024;BME280;3040;42.654;23.296;2023-04-08T05:29:41;94355.41;;;8.14;65.53
6024;BME280;3040;42.654;23.296;2023-04-08T05:32:08;94352.88;;;8.26;65.34
6024;BME280;3040;42.654;23.296;2023-04-08T05:34:34;94368.88;;;8.38;65.51
6024;BME280;3040;42.654;23.296;2023-04-08T05:37:01;94338.22;;;8.37;64.03
6024;BME280;3040;42.654;23.296;2023-04-08T05:39:28;94205.50;;;7.63;63.30
6024;BME280;3040;42.654;23.296;2023-04-08T05:41:56;94363.41;;;8.73;63.95
6024;BME280;3040;42.654;23.296;2023-04-08T05:44:23;94343.03;;;8.65;62.49
6024;BME280;3040;42.654;23.296;2023-04-08T05:46:50;94358.31;;;8.88;62.84
6024;BME280;3040;42.654;23.296;2023-04-08T05:49:17;94351.72;;;8.94;62.21
6024;BME280;3040;42.654;23.296;2023-04-08T05:51:44;94353.03;;;9.09;62.32
6024;BME280;3040;42.654;23.296;2023-04-08T05:54:11;94357.81;;;9.16;61.82
6024;BME280;3040;42.654;23.296;2023-04-08T05:56:37;94353.25;;;9.16;60.52
6024;BME280;3040;42.654;23.296;2023-04-08T05:59:06;94356.38;;;9.18;60.05
6024;BME280;3040;42.654;23.296;2023-04-08T06:01:32;94321.72;;;9.03;60.06
6024;BME280;3040;42.654;23.296;2023-04-08T06:03:59;94364.78;;;9.20;60.17
6024;BME280;3040;42.654;23.296;2023-04-08T06:06:26;94009.50;;;6.88;60.34
6024;BME280;3040;42.654;23.296;2023-04-08T06:08:53;94356.91;;;8.91;61.15
6024;BME280;3040;42.654;23.296;2023-04-08T06:11:20;94357.72;;;8.83;60.84
6024;BME280;3040;42.654;23.296;2023-04-08T06:13:47;94350.03;;;8.90;60.96
6024;BME280;3040;42.654;23.296;2023-04-08T06:16:16;94354.75;;;9.05;60.36
6024;BME280;3040;42.654;23.296;2023-04-08T06:18:43;94349.72;;;9.12;60.36
6024;BME280;3040;42.654;23.296;2023-04-08T06:21:10;94351.00;;;9.27;60.50
6024;BME280;3040;42.654;23.296;2023-04-08T06:23:36;94354.03;;;9.37;59.80
6024;BME280;3040;42.654;23.296;2023-04-08T06:26:03;94349.88;;;9.49;59.36
6024;BME280;3040;42.654;23.296;2023-04-08T06:28:30;94336.69;;;9.40;59.10
6024;BME280;3040;42.654;23.296;2023-04-08T06:30:57;94351.63;;;9.45;58.40
6024;BME280;3040;42.654;23.296;2023-04-08T06:33:25;94345.69;;;9.60;58.91
6024;BME280;3040;42.654;23.296;2023-04-08T06:36:00;94348.00;;;9.28;59.46
6024;BME280;3040;42.654;23.296;2023-04-08T06:38:28;94355.22;;;9.61;59.37
6024;BME280;3040;42.654;23.296;2023-04-08T06:40:55;94355.91;;;9.70;59.65
6024;BME280;3040;42.654;23.296;2023-04-08T06:43:22;94361.59;;;9.80;59.25
6024;BME280;3040;42.654;23.296;2023-04-08T06:45:48;94367.25;;;9.91;58.57
6024;BME280;3040;42.654;23.296;2023-04-08T06:48:16;94241.97;;;9.20;58.23
6024;BME280;3040;42.654;23.296;2023-04-08T06:50:44;94363.72;;;9.99;58.41
6024;BME280;3040;42.654;23.296;2023-04-08T06:53:11;94366.94;;;10.05;57.78
6024;BME280;3040;42.654;23.296;2023-04-08T06:55:38;94365.94;;;9.97;57.80
6024;BME280;3040;42.654;23.296;2023-04-08T06:58:05;94361.06;;;9.87;59.01
6024;BME280;3040;42.654;23.296;2023-04-08T07:00:32;94367.25;;;9.91;59.37
6024;BME280;3040;42.654;23.296;2023-04-08T07:02:58;94365.94;;;10.09;58.40
6024;BME280;3040;42.654;23.296;2023-04-08T07:05:25;94361.75;;;10.08;58.08
6024;BME280;3040;42.654;23.296;2023-04-08T07:07:53;94365.91;;;10.18;58.13
6024;BME280;3040;42.654;23.296;2023-04-08T07:10:20;94357.56;;;10.19;58.25
6024;BME280;3040;42.654;23.296;2023-04-08T07:12:47;94364.56;;;10.24;58.49
6024;BME280;3040;42.654;23.296;2023-04-08T07:15:15;94380.06;;;9.89;58.78
6024;BME280;3040;42.654;23.296;2023-04-08T07:17:42;94370.53;;;9.76;59.52
6024;BME280;3040;42.654;23.296;2023-04-08T07:20:10;94370.94;;;9.99;60.26
6024;BME280;3040;42.654;23.296;2023-04-08T07:22:38;94229.69;;;9.15;59.50
6024;BME280;3040;42.654;23.296;2023-04-08T07:25:07;94373.69;;;10.02;59.80
6024;BME280;3040;42.654;23.296;2023-04-08T07:27:34;94380.28;;;10.17;59.23
6024;BME280;3040;42.654;23.296;2023-04-08T07:30:01;94377.09;;;10.48;58.57
6024;BME280;3040;42.654;23.296;2023-04-08T07:32:28;94379.75;;;10.72;58.15
6024;BME280;3040;42.654;23.296;2023-04-08T07:34:54;94386.72;;;10.89;57.72
6024;BME280;3040;42.654;23.296;2023-04-08T07:37:21;94386.13;;;11.08;57.07
6024;BME280;3040;42.654;23.296;2023-04-08T07:39:48;94395.19;;;11.19;56.76
6024;BME280;3040;42.654;23.296;2023-04-08T07:42:16;94388.41;;;11.21;56.77
6024;BME280;3040;42.654;23.296;2023-04-08T07:44:44;94389.72;;;11.27;57.12
6024;BME280;3040;42.654;23.296;2023-04-08T07:47:11;94390.47;;;11.40;56.73
6024;BME280;3040;42.654;23.296;2023-04-08T07:49:38;94404.88;;;11.51;56.25
6024;BME280;3040;42.654;23.296;2023-04-08T07:52:05;94345.78;;;11.33;54.89
6024;BME280;3040;42.654;23.296;2023-04-08T07:54:32;94371.84;;;11.40;55.01
6024;BME280;3040;42.654;23.296;2023-04-08T07:57:00;94410.78;;;11.72;55.07
6024;BME280;3040;42.654;23.296;2023-04-08T07:59:28;94414.34;;;11.64;55.41
6024;BME280;3040;42.654;23.296;2023-04-08T08:01:55;94410.25;;;11.67;55.87
6024;BME280;3040;42.654;23.296;2023-04-08T08:04:22;94413.22;;;11.77;54.56
6024;BME280;3040;42.654;23.296;2023-04-08T08:06:50;94411.56;;;11.73;55.04
6024;BME280;3040;42.654;23.296;2023-04-08T08:09:17;94386.19;;;11.63;54.39
6024;BME280;3040;42.654;23.296;2023-04-08T08:11:44;94411.28;;;11.90;54.09
6024;BME280;3040;42.654;23.296;2023-04-08T08:14:11;94415.34;;;12.00;54.65
6024;BME280;3040;42.654;23.296;2023-04-08T08:16:39;94381.31;;;11.93;53.68
6024;BME280;3040;42.654;23.296;2023-04-08T08:19:06;94404.28;;;12.13;54.82
6024;BME280;3040;42.654;23.296;2023-04-08T08:21:35;94377.53;;;12.10;54.44
6024;BME280;3040;42.654;23.296;2023-04-08T08:24:03;94294.38;;;11.45;53.93
6024;BME280;3040;42.654;23.296;2023-04-08T08:26:30;94407.13;;;12.05;54.22
6024;BME280;3040;42.654;23.296;2023-04-08T08:28:59;94411.88;;;12.11;54.89
6024;BME280;3040;42.654;23.296;2023-04-08T08:31:26;94416.69;;;11.94;55.04
6024;BME280;3040;42.654;23.296;2023-04-08T08:33:54;94419.63;;;11.89;56.03
6024;BME280;3040;42.654;23.296;2023-04-08T08:36:21;94393.91;;;11.80;55.50
6024;BME280;3040;42.654;23.296;2023-04-08T08:38:48;94317.72;;;11.36;54.46
6024;BME280;3040;42.654;23.296;2023-04-08T08:41:16;94418.66;;;12.09;54.85
6024;BME280;3040;42.654;23.296;2023-04-08T08:43:43;94412.38;;;12.17;54.28
6024;BME280;3040;42.654;23.296;2023-04-08T08:46:09;94405.16;;;12.17;53.24
6024;BME280;3040;42.654;23.296;2023-04-08T08:48:37;94396.72;;;12.15;53.50
6024;BME280;3040;42.654;23.296;2023-04-08T08:51:08;94379.69;;;11.76;54.46
6024;BME280;3040;42.654;23.296;2023-04-08T08:53:36;94394.59;;;11.65;54.74
6024;BME280;3040;42.654;23.296;2023-04-08T08:56:03;94424.47;;;11.99;54.62
6024;BME280;3040;42.654;23.296;2023-04-08T08:58:31;94411.88;;;12.11;53.10
6024;BME280;3040;42.654;23.296;2023-04-08T09:00:57;94405.91;;;12.02;54.08
6024;BME280;3040;42.654;23.296;2023-04-08T09:03:25;94409.28;;;12.15;54.80
6024;BME280;3040;42.654;23.296;2023-04-08T09:05:54;94415.13;;;12.20;54.63
6024;BME280;3040;42.654;23.296;2023-04-08T09:08:27;94407.06;;;12.33;52.26
6024;BME280;3040;42.654;23.296;2023-04-08T09:10:55;94401.13;;;12.55;53.25
6024;BME280;3040;42.654;23.296;2023-04-08T09:13:22;94413.97;;;12.65;54.56
6024;BME280;3040;42.654;23.296;2023-04-08T09:16:03;94417.47;;;12.69;54.14
6024;BME280;3040;42.654;23.296;2023-04-08T09:18:30;94413.44;;;12.75;53.19
6024;BME280;3040;42.654;23.296;2023-04-08T09:20:59;94408.56;;;12.96;53.31
6024;BME280;3040;42.654;23.296;2023-04-08T09:23:38;94392.47;;;12.93;53.88
6024;BME280;3040;42.654;23.296;2023-04-08T09:26:09;94408.47;;;13.24;53.49
6024;BME280;3040;42.654;23.296;2023-04-08T09:28:37;94406.09;;;13.58;52.90
6024;BME280;3040;42.654;23.296;2023-04-08T09:31:18;94406.66;;;13.86;51.29
6024;BME280;3040;42.654;23.296;2023-04-08T09:33:46;94396.84;;;14.36;51.28
6024;BME280;3040;42.654;23.296;2023-04-08T09:36:13;94301.19;;;14.29;48.79
6024;BME280;3040;42.654;23.296;2023-04-08T09:38:42;94400.38;;;15.68;47.00
6024;BME280;3040;42.654;23.296;2023-04-08T09:41:14;94394.59;;;15.96;46.34
6024;BME280;3040;42.654;23.296;2023-04-08T09:43:42;94387.25;;;15.93;43.35
6024;BME280;3040;42.654;23.296;2023-04-08T09:46:14;94389.94;;;16.26;43.73
6024;BME280;3040;42.654;23.296;2023-04-08T09:48:48;94380.69;;;15.86;44.48
6024;BME280;3040;42.654;23.296;2023-04-08T09:51:16;94391.59;;;16.04;43.29
6024;BME280;3040;42.654;23.296;2023-04-08T09:53:48;94372.22;;;16.21;41.74
6024;BME280;3040;42.654;23.296;2023-04-08T09:56:19;94372.47;;;16.94;41.25
6024;BME280;3040;42.654;23.296;2023-04-08T09:58:51;94378.16;;;17.40;40.95
6024;BME280;3040;42.654;23.296;2023-04-08T10:01:23;94374.78;;;16.95;42.53
6024;BME280;3040;42.654;23.296;2023-04-08T10:03:53;94373.34;;;17.05;42.12
6024;BME280;3040;42.654;23.296;2023-04-08T10:06:27;94386.59;;;16.40;41.58
6024;BME280;3040;42.654;23.296;2023-04-08T10:08:57;94387.28;;;15.59;43.05
6024;BME280;3040;42.654;23.296;2023-04-08T10:11:25;94381.34;;;15.46;43.97
6024;BME280;3040;42.654;23.296;2023-04-08T10:13:52;94381.53;;;15.31;43.91
6024;BME280;3040;42.654;23.296;2023-04-08T10:16:21;94379.69;;;14.82;46.22
6024;BME280;3040;42.654;23.296;2023-04-08T10:18:50;94378.22;;;14.39;47.30
6024;BME280;3040;42.654;23.296;2023-04-08T10:21:37;94376.38;;;14.01;48.97
6024;BME280;3040;42.654;23.296;2023-04-08T10:24:09;94369.81;;;13.57;51.88
6024;BME280;3040;42.654;23.296;2023-04-08T10:26:38;94363.69;;;13.75;52.11
6024;BME280;3040;42.654;23.296;2023-04-08T10:29:30;94368.53;;;13.70;51.18
6024;BME280;3040;42.654;23.296;2023-04-08T10:31:58;94358.56;;;13.48;52.25
6024;BME280;3040;42.654;23.296;2023-04-08T10:34:26;94354.00;;;13.48;51.73
6024;BME280;3040;42.654;23.296;2023-04-08T10:36:55;94220.34;;;12.48;52.48
6024;BME280;3040;42.654;23.296;2023-04-08T10:39:24;94357.78;;;13.47;53.52
6024;BME280;3040;42.654;23.296;2023-04-08T10:41:52;94360.19;;;13.52;53.69
6024;BME280;3040;42.654;23.296;2023-04-08T10:44:22;94348.56;;;13.64;53.84
6024;BME280;3040;42.654;23.296;2023-04-08T10:46:50;94343.34;;;14.36;53.79
6024;BME280;3040;42.654;23.296;2023-04-08T10:49:17;94348.63;;;14.78;51.95
6024;BME280;3040;42.654;23.296;2023-04-08T10:51:45;94349.50;;;14.85;51.62
6024;BME280;3040;42.654;23.296;2023-04-08T10:54:13;94337.25;;;14.84;49.84
6024;BME280;3040;42.654;23.296;2023-04-08T10:56:47;94333.72;;;14.54;49.77
6024;BME280;3040;42.654;23.296;2023-04-08T10:59:15;94342.22;;;14.37;50.22
6024;BME280;3040;42.654;23.296;2023-04-08T11:01:45;94331.09;;;13.89;49.55
6024;BME280;3040;42.654;23.296;2023-04-08T11:04:16;94320.22;;;13.78;50.39
6024;BME280;3040;42.654;23.296;2023-04-08T11:06:45;94328.19;;;13.56;51.04
6024;BME280;3040;42.654;23.296;2023-04-08T11:09:13;94326.69;;;13.58;51.16
6024;BME280;3040;42.654;23.296;2023-04-08T11:11:41;94324.19;;;13.46;51.96
6024;BME280;3040;42.654;23.296;2023-04-08T11:14:10;94326.78;;;13.62;52.10
6024;BME280;3040;42.654;23.296;2023-04-08T11:16:37;94318.50;;;13.28;52.40
6024;BME280;3040;42.654;23.296;2023-04-08T11:19:05;94314.69;;;13.29;53.11
6024;BME280;3040;42.654;23.296;2023-04-08T11:21:35;94314.22;;;13.08;53.02
6024;BME280;3040;42.654;23.296;2023-04-08T11:24:07;94320.81;;;13.30;51.27
6024;BME280;3040;42.654;23.296;2023-04-08T11:26:36;94298.25;;;13.27;51.00
6024;BME280;3040;42.654;23.296;2023-04-08T11:29:04;94301.47;;;13.56;51.66
6024;BME280;3040;42.654;23.296;2023-04-08T11:31:33;94162.34;;;13.45;48.80
6024;BME280;3040;42.654;23.296;2023-04-08T11:34:01;94293.34;;;14.62;47.06
6024;BME280;3040;42.654;23.296;2023-04-08T11:36:28;94191.16;;;14.31;47.30
6024;BME280;3040;42.654;23.296;2023-04-08T11:38:56;94296.47;;;14.68;45.99
6024;BME280;3040;42.654;23.296;2023-04-08T11:41:22;94260.44;;;14.88;45.54
6024;BME280;3040;42.654;23.296;2023-04-08T11:43:55;94287.88;;;15.45;44.39
6024;BME280;3040;42.654;23.296;2023-04-08T11:46:22;94288.13;;;15.33;42.49
6024;BME280;3040;42.654;23.296;2023-04-08T11:48:59;94297.16;;;15.18;42.89
6024;BME280;3040;42.654;23.296;2023-04-08T11:51:27;94281.25;;;14.46;45.13
6024;BME280;3040;42.654;23.296;2023-04-08T11:53:54;94291.75;;;14.58;44.90
6024;BME280;3040;42.654;23.296;2023-04-08T11:56:22;94286.66;;;14.04;46.91
6024;BME280;3040;42.654;23.296;2023-04-08T11:58:49;94280.38;;;14.15;45.78
6024;BME280;3040;42.654;23.296;2023-04-08T12:01:16;94272.66;;;14.10;46.58
6024;BME280;3040;42.654;23.296;2023-04-08T12:03:53;94263.66;;;14.22;47.02
6024;BME280;3040;42.654;23.296;2023-04-08T12:06:22;94268.38;;;14.81;46.30
6024;BME280;3040;42.654;23.296;2023-04-08T12:08:51;94258.41;;;15.45;45.14
6024;BME280;3040;42.654;23.296;2023-04-08T12:11:18;94258.50;;;15.52;45.23
6024;BME280;3040;42.654;23.296;2023-04-08T12:13:48;94264.75;;;15.63;43.46
6024;BME280;3040;42.654;23.296;2023-04-08T12:16:17;94247.19;;;15.69;43.19
6024;BME280;3040;42.654;23.296;2023-04-08T12:18:44;94251.34;;;15.63;44.40
6024;BME280;3040;42.654;23.296;2023-04-08T12:21:12;94261.34;;;14.73;44.12
6024;BME280;3040;42.654;23.296;2023-04-08T12:23:40;94221.53;;;13.70;48.38
6024;BME280;3040;42.654;23.296;2023-04-08T12:26:07;94254.38;;;13.70;48.72
6024;BME280;3040;42.654;23.296;2023-04-08T12:28:34;94240.41;;;13.58;49.76
6024;BME280;3040;42.654;23.296;2023-04-08T12:31:01;94243.84;;;13.35;50.12
6024;BME280;3040;42.654;23.296;2023-04-08T12:33:28;94212.78;;;12.70;50.07
6024;BME280;3040;42.654;23.296;2023-04-08T12:35:55;94234.13;;;12.70;48.82
6024;BME280;3040;42.654;23.296;2023-04-08T12:38:22;94229.22;;;12.72;50.22
6024;BME280;3040;42.654;23.296;2023-04-08T12:40:51;94227.50;;;12.44;51.39
6024;BME280;3040;42.654;23.296;2023-04-08T12:43:18;94204.69;;;12.12;51.25
6024;BME280;3040;42.654;23.296;2023-04-08T12:45:45;94231.09;;;12.17;51.93
6024;BME280;3040;42.654;23.296;2023-04-08T12:48:13;94234.97;;;11.88;54.32
6024;BME280;3040;42.654;23.296;2023-04-08T12:50:39;94235.88;;;11.64;54.64
6024;BME280;3040;42.654;23.296;2023-04-08T12:53:06;94242.50;;;11.70;55.17
6024;BME280;3040;42.654;23.296;2023-04-08T12:55:33;94253.53;;;11.85;54.00
6024;BME280;3040;42.654;23.296;2023-04-08T12:58:02;94251.31;;;12.02;53.74
6024;BME280;3040;42.654;23.296;2023-04-08T13:00:29;94260.41;;;12.17;53.03
6024;BME280;3040;42.654;23.296;2023-04-08T13:02:56;94258.50;;;12.33;52.68
6024;BME280;3040;42.654;23.296;2023-04-08T13:05:23;94265.69;;;12.48;52.41
6024;BME280;3040;42.654;23.296;2023-04-08T13:07:50;94268.22;;;12.41;52.21
6024;BME280;3040;42.654;23.296;2023-04-08T13:10:17;94260.06;;;12.34;52.26
6024;BME280;3040;42.654;23.296;2023-04-08T13:12:44;94241.94;;;12.43;53.06
6024;BME280;3040;42.654;23.296;2023-04-08T13:15:13;94238.94;;;12.45;53.58
6024;BME280;3040;42.654;23.296;2023-04-08T13:17:40;94242.22;;;12.73;60.13
6024;BME280;3040;42.654;23.296;2023-04-08T13:20:08;94236.34;;;12.83;61.65
6024;BME280;3040;42.654;23.296;2023-04-08T13:22:36;94244.69;;;13.01;61.55